sensor_id;sensor_type;location;lat;lon;timestamp;pressure;altitude;pressure_sealevel;temperature;humidity
59315;BME280;46521;50.160;20.802;2023-06-19T00:09:40;99589.14;;;16.89;63.72
59315;BME280;46521;50.160;20.802;2023-06-19T00:19:43;99587.13;;;16.71;64.02
59315;BME280;46521;50.160;20.802;2023-06-19T00:29:44;99584.47;;;16.57;64.43
59315;BME280;46521;50.160;20.802;2023-06-19T00:39:46;99593.13;;;16.46;64.03
59315;BME280;46521;50.160;20.802;2023-06-19T00:49:47;99595.39;;;16.16;64.22
59315;BME280;46521;50.160;20.802;2023-06-19T00:59:49;99588.38;;;15.75;64.57
59315;BME280;46521;50.160;20.802;2023-06-19T01:09:57;99583.02;;;15.55;64.79
59315;BME280;46521;50.160;20.802;2023-06-19T01:20:01;99581.78;;;15.44;64.89
59315;BME280;46521;50.160;20.802;2023-06-19T01:30:11;99580.13;;;15.43;65.21
59315;BME280;46521;50.160;20.802;2023-06-19T01:40:14;99582.61;;;15.58;65.35
59315;BME280;46521;50.160;20.802;2023-06-19T01:50:16;99591.45;;;15.65;65.43
59315;BME280;46521;50.160;20.802;2023-06-19T02:00:18;99585.45;;;15.36;65.45
59315;BME280;46521;50.160;20.802;2023-06-19T02:10:19;99588.27;;;15.21;65.57
59315;BME280;46521;50.160;20.802;2023-06-19T02:20:22;99590.31;;;15.19;65.56
59315;BME280;46521;50.160;20.802;2023-06-19T02:30:25;99600.51;;;15.09;65.90
59315;BME280;46521;50.160;20.802;2023-06-19T02:40:27;99599.50;;;15.10;65.98
59315;BME280;46521;50.160;20.802;2023-06-19T02:50:28;99598.50;;;15.18;66.16
59315;BME280;46521;50.160;20.802;2023-06-19T03:00:30;99601.40;;;15.29;66.21
59315;BME280;46521;50.160;20.802;2023-06-19T03:10:31;99606.71;;;15.23;66.32
59315;BME280;46521;50.160;20.802;2023-06-19T03:20:33;99616.58;;;15.29;66.65
59315;BME280;46521;50.160;20.802;2023-06-19T03:30:34;99614.17;;;15.41;66.64
59315;BME280;46521;50.160;20.802;2023-06-19T03:40:36;99625.26;;;15.58;66.73
59315;BME280;46521;50.160;20.802;2023-06-19T03:50:37;99626.38;;;15.77;66.56
59315;BME280;46521;50.160;20.802;2023-06-19T04:35:08;99625.09;;;16.93;67.39
59315;BME280;46521;50.160;20.802;2023-06-19T04:45:10;99641.77;;;17.40;66.09
59315;BME280;46521;50.160;20.802;2023-06-19T04:55:11;99645.30;;;17.73;66.09
59315;BME280;46521;50.160;20.802;2023-06-19T05:05:13;99656.63;;;18.32;65.80
59315;BME280;46521;50.160;20.802;2023-06-19T05:15:15;99658.51;;;18.75;65.19
59315;BME280;46521;50.160;20.802;2023-06-19T05:25:16;99654.38;;;18.98;65.00
59315;BME280;46521;50.160;20.802;2023-06-19T05:35:18;99652.23;;;19.55;64.65
59315;BME280;46521;50.160;20.802;2023-06-19T05:45:19;99656.28;;;20.07;64.46
59315;BME280;46521;50.160;20.802;2023-06-19T05:55:21;99666.59;;;20.45;63.80
59315;BME280;46521;50.160;20.802;2023-06-19T06:05:22;99668.27;;;20.82;63.03
59315;BME280;46521;50.160;20.802;2023-06-19T06:15:25;99688.58;;;21.01;62.22
59315;BME280;46521;50.160;20.802;2023-06-19T06:25:26;99687.06;;;21.58;61.83
59315;BME280;46521;50.160;20.802;2023-06-19T06:35:28;99685.59;;;22.59;60.79
59315;BME280;46521;50.160;20.802;2023-06-19T06:45:30;99682.95;;;22.81;59.25
59315;BME280;46521;50.160;20.802;2023-06-19T06:55:31;99678.63;;;23.02;58.85
59315;BME280;46521;50.160;20.802;2023-06-19T07:05:33;99678.12;;;23.93;58.40
59315;BME280;46521;50.160;20.802;2023-06-19T07:15:34;99674.91;;;24.67;57.25
59315;BME280;46521;50.160;20.802;2023-06-19T07:25:36;99678.59;;;24.93;56.09
59315;BME280;46521;50.160;20.802;2023-06-19T07:35:37;99680.59;;;25.13;55.90
59315;BME280;46521;50.160;20.802;2023-06-19T07:45:39;99695.62;;;25.41;54.74
59315;BME280;46521;50.160;20.802;2023-06-19T07:55:41;99690.90;;;26.20;53.61
59315;BME280;46521;50.160;20.802;2023-06-19T08:05:42;99694.41;;;26.36;52.63
59315;BME280;46521;50.160;20.802;2023-06-19T08:15:44;99688.45;;;26.50;51.58
59315;BME280;46521;50.160;20.802;2023-06-19T08:25:46;99690.11;;;26.66;50.99
59315;BME280;46521;50.160;20.802;2023-06-19T08:35:47;99695.14;;;27.09;49.33
59315;BME280;46521;50.160;20.802;2023-06-19T08:45:56;99685.41;;;26.92;49.41
59315;BME280;46521;50.160;20.802;2023-06-19T08:56:03;99682.28;;;27.40;48.19
59315;BME280;46521;50.160;20.802;2023-06-19T09:06:08;99686.56;;;27.51;47.76
59315;BME280;46521;50.160;20.802;2023-06-19T09:16:10;99691.20;;;27.96;47.00
59315;BME280;46521;50.160;20.802;2023-06-19T09:26:14;99702.13;;;27.85;46.39
59315;BME280;46521;50.160;20.802;2023-06-19T09:36:17;99687.24;;;28.17;45.71
59315;BME280;46521;50.160;20.802;2023-06-19T09:46:19;99693.31;;;28.04;45.02
59315;BME280;46521;50.160;20.802;2023-06-19T09:56:21;99665.13;;;28.58;44.66
59315;BME280;46521;50.160;20.802;2023-06-19T10:06:23;99665.50;;;29.24;43.25
59315;BME280;46521;50.160;20.802;2023-06-19T10:16:24;99663.31;;;29.26;43.44
59315;BME280;46521;50.160;20.802;2023-06-19T10:26:32;99666.47;;;29.72;42.70
59315;BME280;46521;50.160;20.802;2023-06-19T10:36:34;99653.38;;;29.93;42.17
59315;BME280;46521;50.160;20.802;2023-06-19T10:46:36;99648.45;;;29.38;41.33
59315;BME280;46521;50.160;20.802;2023-06-19T10:56:37;99647.06;;;29.16;41.15
59315;BME280;46521;50.160;20.802;2023-06-19T11:06:40;99644.66;;;28.90;41.39
59315;BME280;46521;50.160;20.802;2023-06-19T11:16:44;99637.98;;;29.45;39.42
59315;BME280;46521;50.160;20.802;2023-06-19T11:26:48;99625.91;;;29.51;39.77
59315;BME280;46521;50.160;20.802;2023-06-19T11:36:53;99621.80;;;29.10;39.70
59315;BME280;46521;50.160;20.802;2023-06-19T11:46:57;99633.98;;;28.70;39.30
59315;BME280;46521;50.160;20.802;2023-06-19T11:57:04;99625.50;;;28.47;39.39
59315;BME280;46521;50.160;20.802;2023-06-19T12:07:05;99614.87;;;28.99;38.72
59315;BME280;46521;50.160;20.802;2023-06-19T12:17:07;99623.80;;;29.05;39.10
59315;BME280;46521;50.160;20.802;2023-06-19T12:27:09;99611.03;;;29.24;38.52
59315;BME280;46521;50.160;20.802;2023-06-19T12:37:11;99599.48;;;28.89;38.49
59315;BME280;46521;50.160;20.802;2023-06-19T12:47:14;99576.26;;;29.16;37.65
59315;BME280;46521;50.160;20.802;2023-06-19T12:57:16;99587.35;;;29.01;37.31
59315;BME280;46521;50.160;20.802;2023-06-19T13:07:17;99575.80;;;29.09;37.39
59315;BME280;46521;50.160;20.802;2023-06-19T13:17:19;99567.71;;;29.04;37.22
59315;BME280;46521;50.160;20.802;2023-06-19T13:27:20;99557.09;;;28.83;37.38
59315;BME280;46521;50.160;20.802;2023-06-19T13:37:22;99551.14;;;28.81;37.50
59315;BME280;46521;50.160;20.802;2023-06-19T13:47:24;99546.87;;;28.75;37.12
59315;BME280;46521;50.160;20.802;2023-06-19T13:57:28;99541.69;;;28.49;37.18
59315;BME280;46521;50.160;20.802;2023-06-19T14:07:30;99539.04;;;28.44;36.88
59315;BME280;46521;50.160;20.802;2023-06-19T14:17:32;99538.56;;;28.37;36.75
59315;BME280;46521;50.160;20.802;2023-06-19T14:27:33;99534.41;;;28.20;36.69
59315;BME280;46521;50.160;20.802;2023-06-19T14:37:35;99529.64;;;28.07;36.52
59315;BME280;46521;50.160;20.802;2023-06-19T14:47:37;99524.95;;;27.83;37.54
59315;BME280;46521;50.160;20.802;2023-06-19T14:57:38;99528.13;;;27.96;36.61
59315;BME280;46521;50.160;20.802;2023-06-19T15:07:40;99521.08;;;27.90;36.84
59315;BME280;46521;50.160;20.802;2023-06-19T15:17:41;99534.63;;;27.65;37.02
59315;BME280;46521;50.160;20.802;2023-06-19T15:27:43;99537.41;;;27.55;36.93
59315;BME280;46521;50.160;20.802;2023-06-19T15:37:45;99522.53;;;27.47;36.92
59315;BME280;46521;50.160;20.802;2023-06-19T15:47:46;99520.19;;;27.36;37.26
59315;BME280;46521;50.160;20.802;2023-06-19T15:57:47;99521.11;;;27.15;37.59
59315;BME280;46521;50.160;20.802;2023-06-19T16:07:49;99526.58;;;27.10;37.53
59315;BME280;46521;50.160;20.802;2023-06-19T16:17:50;99524.71;;;27.01;37.68
59315;BME280;46521;50.160;20.802;2023-06-19T16:27:54;99527.26;;;26.82;37.63
59315;BME280;46521;50.160;20.802;2023-06-19T16:37:56;99531.12;;;26.70;37.86
59315;BME280;46521;50.160;20.802;2023-06-19T16:47:58;99528.48;;;26.44;38.86
59315;BME280;46521;50.160;20.802;2023-06-19T16:57:59;99521.49;;;26.23;38.91
59315;BME280;46521;50.160;20.802;2023-06-19T17:08:01;99517.73;;;25.93;39.82
59315;BME280;46521;50.160;20.802;2023-06-19T17:18:02;99514.49;;;25.91;39.96
59315;BME280;46521;50.160;20.802;2023-06-19T17:28:05;99521.25;;;25.78;41.21
59315;BME280;46521;50.160;20.802;2023-06-19T17:38:06;99526.95;;;25.51;42.19
59315;BME280;46521;50.160;20.802;2023-06-19T17:48:08;99528.02;;;25.29;42.98
59315;BME280;46521;50.160;20.802;2023-06-19T17:58:12;99538.24;;;25.17;43.95
59315;BME280;46521;50.160;20.802;2023-06-19T18:08:14;99542.54;;;25.03;44.65
59315;BME280;46521;50.160;20.802;2023-06-19T18:18:15;99557.07;;;24.81;45.82
59315;BME280;46521;50.160;20.802;2023-06-19T18:28:17;99558.01;;;24.54;46.21
59315;BME280;46521;50.160;20.802;2023-06-19T18:38:18;99561.38;;;24.29;46.94
59315;BME280;46521;50.160;20.802;2023-06-19T18:48:20;99570.91;;;23.99;47.36
59315;BME280;46521;50.160;20.802;2023-06-19T18:58:21;99573.61;;;23.67;48.08
59315;BME280;46521;50.160;20.802;2023-06-19T19:08:23;99582.77;;;23.38;48.27
59315;BME280;46521;50.160;20.802;2023-06-19T19:18:24;99590.05;;;23.11;49.25
59315;BME280;46521;50.160;20.802;2023-06-19T19:28:26;99597.16;;;22.78;50.38
59315;BME280;46521;50.160;20.802;2023-06-19T19:38:28;99598.35;;;22.65;50.96
59315;BME280;46521;50.160;20.802;2023-06-19T19:48:30;99609.66;;;22.45;51.28
59315;BME280;46521;50.160;20.802;2023-06-19T19:58:35;99613.56;;;22.20;51.75
59315;BME280;46521;50.160;20.802;2023-06-19T20:08:40;99617.71;;;21.94;52.21
59315;BME280;46521;50.160;20.802;2023-06-19T20:18:42;99614.19;;;21.76;52.58
59315;BME280;46521;50.160;20.802;2023-06-19T20:28:43;99617.57;;;21.55;53.30
59315;BME280;46521;50.160;20.802;2023-06-19T20:38:45;99614.68;;;21.45;53.68
59315;BME280;46521;50.160;20.802;2023-06-19T20:48:46;99621.17;;;21.32;54.12
59315;BME280;46521;50.160;20.802;2023-06-19T20:58:48;99624.33;;;20.88;54.76
59315;BME280;46521;50.160;20.802;2023-06-19T21:08:49;99624.31;;;20.52;55.50
59315;BME280;46521;50.160;20.802;2023-06-19T21:18:51;99627.01;;;20.52;56.10
59315;BME280;46521;50.160;20.802;2023-06-19T21:28:52;99625.95;;;20.42;56.03
59315;BME280;46521;50.160;20.802;2023-06-19T21:38:54;99621.61;;;20.17;56.69
59315;BME280;46521;50.160;20.802;2023-06-19T21:48:55;99633.53;;;20.21;57.05
59315;BME280;46521;50.160;20.802;2023-06-19T21:58:58;99631.77;;;20.15;57.31
59315;BME280;46521;50.160;20.802;2023-06-19T22:08:59;99633.99;;;20.06;57.58
59315;BME280;46521;50.160;20.802;2023-06-19T22:19:01;99644.59;;;20.01;57.96
59315;BME280;46521;50.160;20.802;2023-06-19T22:29:04;99652.88;;;19.69;58.28
59315;BME280;46521;50.160;20.802;2023-06-19T22:39:06;99649.58;;;19.37;58.64
59315;BME280;46521;50.160;20.802;2023-06-19T22:49:07;99651.23;;;19.38;58.94
59315;BME280;46521;50.160;20.802;2023-06-19T22:59:09;99651.09;;;19.33;58.94
59315;BME280;46521;50.160;20.802;2023-06-19T23:09:11;99652.58;;;19.29;59.14
59315;BME280;46521;50.160;20.802;2023-06-19T23:19:13;99648.42;;;19.14;59.01
59315;BME280;46521;50.160;20.802;2023-06-19T23:29:14;99661.69;;;19.09;59.40
59315;BME280;46521;50.160;20.802;2023-06-19T23:39:16;99664.19;;;18.85;59.53
59315;BME280;46521;50.160;20.802;2023-06-19T23:49:17;99671.20;;;18.61;59.58
